createdAt,value
2017-02-23T00:00:18.946Z,87.10
2017-02-23T00:01:19.482Z,87.51
2017-02-23T00:02:20.018Z,87.05
2017-02-23T00:03:20.553Z,87.08
2017-02-23T00:04:21.094Z,87.88
2017-02-23T00:05:21.769Z,87.32
2017-02-23T00:06:22.304Z,87.02
2017-02-23T00:07:22.688Z,87.43
2017-02-23T00:08:23.215Z,87.80
2017-02-23T00:09:23.747Z,87.32
2017-02-23T00:10:24.279Z,88.04
2017-02-23T00:11:24.811Z,87.48
2017-02-23T00:12:25.359Z,87.53
2017-02-23T00:13:25.890Z,87.64
2017-02-23T00:14:26.410Z,87.40
2017-02-23T00:15:26.942Z,88.09
2017-02-23T00:16:27.474Z,87.96
2017-02-23T00:17:28.002Z,87.85
2017-02-23T00:18:28.687Z,88.39
2017-02-23T00:19:29.068Z,87.96
2017-02-23T00:20:29.613Z,89.03
2017-02-23T00:21:30.136Z,88.15
2017-02-23T00:22:30.667Z,86.68
2017-02-23T00:23:31.199Z,86.84
2017-02-23T00:24:31.729Z,87.98
2017-02-23T00:25:32.266Z,88.36
2017-02-23T00:26:32.956Z,88.46
2017-02-23T00:27:33.331Z,88.92
2017-02-23T00:28:33.875Z,88.81
2017-02-23T00:29:34.395Z,88.73
2017-02-23T00:30:34.923Z,90.05
2017-02-23T00:31:35.460Z,88.92
2017-02-23T00:32:35.998Z,89.06
2017-02-23T00:33:36.527Z,89.62
2017-02-23T00:34:37.203Z,89.06
2017-02-23T00:35:37.586Z,88.89
2017-02-23T00:36:38.112Z,89.06
2017-02-23T00:37:38.646Z,88.97
2017-02-23T00:38:39.179Z,88.97
2017-02-23T00:39:39.716Z,88.95
2017-02-23T00:40:40.255Z,88.76
2017-02-23T00:41:40.785Z,88.46
2017-02-23T00:42:41.342Z,89.40
2017-02-23T00:43:41.852Z,89.35
2017-02-23T00:44:42.382Z,89.03
2017-02-23T00:45:42.924Z,89.78
2017-02-23T00:46:43.454Z,89.40
2017-02-23T00:47:43.993Z,88.79
2017-02-23T00:48:44.519Z,88.60
2017-02-23T00:49:45.051Z,89.03
2017-02-23T00:50:45.585Z,88.20
2017-02-23T00:51:46.108Z,89.00
2017-02-23T00:52:46.641Z,89.32
2017-02-23T00:53:47.214Z,89.56
2017-02-23T00:54:47.714Z,90.02
2017-02-23T00:55:48.234Z,89.80
2017-02-23T00:56:48.761Z,89.88
2017-02-23T00:57:49.299Z,90.31
2017-02-23T00:58:49.839Z,90.74
2017-02-23T00:59:50.364Z,90.05
2017-02-23T01:00:50.896Z,90.77
2017-02-23T01:01:51.433Z,90.88
2017-02-23T01:02:51.970Z,90.28
2017-02-23T01:03:52.495Z,89.80
2017-02-23T01:04:53.024Z,89.94
2017-02-23T01:05:53.555Z,89.80
2017-02-23T01:06:54.086Z,89.94
2017-02-23T01:07:54.617Z,89.75
2017-02-23T01:08:55.149Z,90.71
2017-02-23T01:09:55.685Z,90.61
2017-02-23T01:10:56.214Z,90.77
2017-02-23T01:11:56.749Z,89.78
2017-02-23T01:12:57.282Z,90.28
2017-02-23T01:13:57.816Z,90.63
2017-02-23T01:14:58.346Z,90.50
2017-02-23T01:15:58.883Z,91.03
2017-02-23T01:16:59.563Z,90.69
2017-02-23T01:17:59.947Z,90.80
2017-02-23T01:19:00.475Z,90.53
2017-02-23T01:20:01.009Z,91.11
2017-02-23T01:21:01.538Z,91.11
2017-02-23T01:22:02.079Z,91.38
2017-02-23T01:23:02.609Z,91.71
2017-02-23T01:24:03.141Z,91.65
2017-02-23T01:25:03.677Z,91.92
2017-02-23T01:26:04.209Z,92.11
2017-02-23T01:27:04.743Z,92.01
2017-02-23T01:28:05.279Z,92.16
2017-02-23T01:29:05.813Z,92.40
2017-02-23T01:30:06.350Z,92.43
2017-02-23T01:31:06.878Z,92.57
2017-02-23T01:32:07.410Z,92.68
2017-02-23T01:33:07.940Z,92.65
2017-02-23T01:34:08.472Z,92.73
2017-02-23T01:35:09.001Z,92.76
2017-02-23T01:36:09.681Z,92.08
2017-02-23T01:37:10.071Z,92.70
2017-02-23T01:38:10.605Z,92.76
2017-02-23T01:39:11.131Z,92.46
2017-02-23T01:40:11.666Z,92.76
2017-02-23T01:41:12.203Z,92.86
2017-02-23T01:42:12.731Z,92.91
2017-02-23T01:43:13.270Z,93.18
2017-02-23T01:44:13.795Z,93.16
2017-02-23T01:45:14.328Z,93.08
2017-02-23T01:46:14.860Z,93.24
2017-02-23T01:47:15.540Z,93.35
2017-02-23T01:48:15.922Z,93.29
2017-02-23T01:49:16.459Z,93.51
2017-02-23T01:50:16.988Z,93.48
2017-02-23T01:51:17.523Z,93.54
2017-02-23T01:52:18.047Z,93.37
2017-02-23T01:53:18.580Z,93.54
2017-02-23T01:54:19.114Z,93.62
2017-02-23T01:55:19.640Z,93.70
2017-02-23T01:56:20.323Z,93.81
2017-02-23T01:57:20.703Z,93.75
2017-02-23T01:58:21.250Z,93.89
2017-02-23T01:59:21.782Z,93.94
2017-02-23T02:00:22.304Z,93.40
2017-02-23T02:01:22.835Z,93.75
2017-02-23T02:02:23.379Z,93.96
2017-02-23T02:03:23.902Z,93.54
2017-02-23T02:04:24.435Z,93.64
2017-02-23T02:05:24.970Z,93.67
2017-02-23T02:06:25.507Z,93.64
2017-02-23T02:07:26.042Z,93.51
2017-02-23T02:08:26.582Z,93.70
2017-02-23T02:09:27.114Z,93.72
2017-02-23T02:10:27.648Z,93.72
2017-02-23T02:11:28.177Z,93.83
2017-02-23T02:12:28.714Z,93.94
2017-02-23T02:13:29.249Z,93.96
2017-02-23T02:14:29.773Z,94.02
2017-02-23T02:15:30.308Z,93.91
2017-02-23T02:16:30.839Z,93.83
2017-02-23T02:17:31.518Z,94.07
2017-02-23T02:18:31.903Z,94.12
2017-02-23T02:19:32.433Z,93.96
2017-02-23T02:20:32.965Z,93.96
2017-02-23T02:21:33.496Z,93.94
2017-02-23T02:22:34.029Z,94.07
2017-02-23T02:23:34.557Z,93.94
2017-02-23T02:24:35.093Z,94.26
2017-02-23T02:25:35.634Z,93.89
2017-02-23T02:26:36.161Z,93.85
2017-02-23T02:27:36.690Z,94.02
2017-02-23T02:28:37.225Z,94.07
2017-02-23T02:29:37.760Z,93.83
2017-02-23T02:30:38.292Z,93.89
2017-02-23T02:31:38.855Z,94.15
2017-02-23T02:32:39.354Z,94.12
2017-02-23T02:33:39.892Z,94.21
2017-02-23T02:34:40.421Z,93.56
2017-02-23T02:35:40.952Z,94.04
2017-02-23T02:36:41.488Z,93.96
2017-02-23T02:37:42.020Z,93.99
2017-02-23T02:38:42.550Z,94.07
2017-02-23T02:39:43.082Z,93.96
2017-02-23T02:40:43.612Z,94.26
2017-02-23T02:41:44.147Z,94.67
2017-02-23T02:42:44.676Z,94.48
2017-02-23T02:43:45.210Z,94.37
2017-02-23T02:44:45.745Z,94.15
2017-02-23T02:45:46.279Z,94.29
2017-02-23T02:46:46.812Z,94.26
2017-02-23T02:47:47.349Z,94.29
2017-02-23T02:48:47.884Z,94.21
2017-02-23T02:49:48.425Z,94.48
2017-02-23T02:50:48.956Z,94.56
2017-02-23T02:51:49.495Z,94.72
2017-02-23T02:52:50.023Z,94.53
2017-02-23T02:53:50.563Z,94.42
2017-02-23T02:54:51.093Z,94.83
2017-02-23T02:55:51.627Z,94.91
2017-02-23T02:56:52.156Z,95.01
2017-02-23T02:57:52.689Z,95.10
2017-02-23T02:58:53.223Z,94.83
2017-02-23T02:59:53.752Z,94.86
2017-02-23T03:00:54.287Z,94.83
2017-02-23T03:01:54.824Z,94.91
2017-02-23T03:02:55.354Z,95.07
2017-02-23T03:03:55.886Z,95.20
2017-02-23T03:04:56.416Z,95.31
2017-02-23T03:05:56.949Z,95.47
2017-02-23T03:06:57.480Z,95.69
2017-02-23T03:07:58.013Z,95.56
2017-02-23T03:08:58.547Z,95.31
2017-02-23T03:09:59.074Z,95.50
2017-02-23T03:10:59.610Z,95.45
2017-02-23T03:12:00.144Z,95.45
2017-02-23T03:13:00.683Z,95.45
2017-02-23T03:14:01.216Z,95.28
2017-02-23T03:15:01.750Z,95.31
2017-02-23T03:16:02.277Z,95.26
2017-02-23T03:17:02.810Z,95.34
2017-02-23T03:18:03.352Z,95.34
2017-02-23T03:19:03.874Z,95.39
2017-02-23T03:20:04.407Z,95.53
2017-02-23T03:21:04.938Z,95.69
2017-02-23T03:22:05.468Z,95.34
2017-02-23T03:23:06.003Z,95.61
2017-02-23T03:24:06.533Z,95.91
2017-02-23T03:25:07.080Z,95.96
2017-02-23T03:26:07.598Z,96.02
2017-02-23T03:27:08.132Z,96.20
2017-02-23T03:28:08.667Z,96.09
2017-02-23T03:29:09.214Z,96.15
2017-02-23T03:30:09.886Z,96.13
2017-02-23T03:31:10.278Z,95.98
2017-02-23T03:32:10.813Z,96.02
2017-02-23T03:33:11.350Z,95.94
2017-02-23T03:34:11.880Z,96.15
2017-02-23T03:35:12.418Z,96.23
2017-02-23T03:36:12.959Z,96.20
2017-02-23T03:37:13.485Z,96.20
2017-02-23T03:38:14.165Z,96.23
2017-02-23T03:39:14.549Z,96.17
2017-02-23T03:40:15.083Z,95.91
2017-02-23T03:41:15.615Z,95.69
2017-02-23T03:42:16.152Z,95.56
2017-02-23T03:43:16.684Z,95.75
2017-02-23T03:44:17.219Z,95.61
2017-02-23T03:45:17.750Z,95.58
2017-02-23T03:46:18.308Z,95.50
2017-02-23T03:47:18.811Z,95.77
2017-02-23T03:48:19.350Z,95.88
2017-02-23T03:49:19.879Z,95.88
2017-02-23T03:50:20.404Z,95.91
2017-02-23T03:51:20.939Z,95.94
2017-02-23T03:52:21.477Z,95.98
2017-02-23T03:53:22.146Z,96.15
2017-02-23T03:54:22.535Z,96.17
2017-02-23T03:55:23.067Z,96.31
2017-02-23T03:56:23.631Z,96.42
2017-02-23T03:57:24.130Z,96.45
2017-02-23T03:58:24.659Z,96.45
2017-02-23T03:59:25.193Z,96.45
2017-02-23T04:00:25.723Z,96.55
2017-02-23T04:01:26.254Z,96.69
2017-02-23T04:02:26.813Z,96.77
2017-02-23T04:03:27.317Z,96.74
2017-02-23T04:04:27.849Z,96.72
2017-02-23T04:05:28.382Z,96.80
2017-02-23T04:06:28.917Z,96.91
2017-02-23T04:07:29.445Z,96.99
2017-02-23T04:08:30.126Z,97.04
2017-02-23T04:09:30.511Z,97.04
2017-02-23T04:10:31.047Z,97.23
2017-02-23T04:11:31.583Z,97.55
2017-02-23T04:12:32.118Z,97.64
2017-02-23T04:13:32.660Z,97.61
2017-02-23T04:14:33.336Z,97.66
2017-02-23T04:15:33.723Z,97.69
2017-02-23T04:16:34.254Z,97.72
2017-02-23T04:17:34.826Z,97.88
2017-02-23T04:18:35.326Z,97.88
2017-02-23T04:19:35.853Z,97.91
2017-02-23T04:20:36.381Z,97.93
2017-02-23T04:21:36.918Z,97.85
2017-02-23T04:22:37.452Z,97.80
2017-02-23T04:23:37.982Z,97.83
2017-02-23T04:24:38.514Z,97.77
2017-02-23T04:25:39.050Z,97.80
2017-02-23T04:26:39.580Z,97.74
2017-02-23T04:27:40.118Z,97.77
2017-02-23T04:28:40.658Z,97.77
2017-02-23T04:29:41.179Z,97.74
2017-02-23T04:30:41.708Z,97.72
2017-02-23T04:31:42.247Z,97.83
2017-02-23T04:32:42.778Z,97.77
2017-02-23T04:33:43.309Z,97.93
2017-02-23T04:34:43.844Z,98.02
2017-02-23T04:35:44.377Z,98.02
2017-02-23T04:36:44.907Z,98.12
2017-02-23T04:37:45.437Z,98.23
2017-02-23T04:38:45.971Z,98.29
2017-02-23T04:39:46.504Z,98.31
2017-02-23T04:40:47.184Z,98.37
2017-02-23T04:41:47.568Z,98.40
2017-02-23T04:42:48.093Z,98.31
2017-02-23T04:43:48.629Z,98.26
2017-02-23T04:44:49.162Z,98.23
2017-02-23T04:45:49.692Z,98.23
2017-02-23T04:46:50.227Z,98.29
2017-02-23T04:47:50.755Z,98.40
2017-02-23T04:48:51.289Z,98.48
2017-02-23T04:49:51.819Z,98.48
2017-02-23T04:50:52.350Z,98.42
2017-02-23T04:51:52.887Z,98.37
2017-02-23T04:52:53.572Z,98.42
2017-02-23T04:53:53.957Z,98.48
2017-02-23T04:54:54.493Z,98.59
2017-02-23T04:55:55.027Z,98.59
2017-02-23T04:56:55.561Z,98.59
2017-02-23T04:57:56.093Z,98.53
2017-02-23T04:58:56.623Z,98.53
2017-02-23T04:59:57.156Z,98.55
2017-02-23T05:00:57.839Z,98.55
2017-02-23T05:01:58.219Z,98.53
2017-02-23T05:02:58.754Z,98.50
2017-02-23T05:03:59.283Z,98.42
2017-02-23T05:04:59.962Z,98.40
2017-02-23T05:06:00.345Z,98.40
2017-02-23T05:07:00.881Z,98.37
2017-02-23T05:08:01.411Z,98.40
2017-02-23T05:09:01.944Z,98.34
2017-02-23T05:10:02.481Z,98.31
2017-02-23T05:11:03.006Z,98.31
2017-02-23T05:12:03.543Z,98.34
2017-02-23T05:13:04.071Z,98.31
2017-02-23T05:14:04.609Z,98.29
2017-02-23T05:15:05.143Z,98.29
2017-02-23T05:16:05.670Z,98.29
2017-02-23T05:17:06.203Z,98.29
2017-02-23T05:18:06.738Z,98.29
2017-02-23T05:19:07.271Z,98.29
2017-02-23T05:20:07.801Z,98.26
2017-02-23T05:21:08.488Z,98.15
2017-02-23T05:22:08.876Z,98.12
2017-02-23T05:23:09.412Z,98.12
2017-02-23T05:24:09.946Z,98.23
2017-02-23T05:25:10.483Z,98.31
2017-02-23T05:26:11.007Z,98.37
2017-02-23T05:27:11.546Z,98.34
2017-02-23T05:28:12.076Z,98.34
2017-02-23T05:29:12.759Z,98.37
2017-02-23T05:30:13.139Z,98.40
2017-02-23T05:31:13.674Z,98.34
2017-02-23T05:32:14.205Z,98.34
2017-02-23T05:33:14.890Z,98.34
2017-02-23T05:34:15.274Z,98.42
2017-02-23T05:35:15.807Z,98.50
2017-02-23T05:36:16.348Z,98.61
2017-02-23T05:37:16.882Z,98.64
2017-02-23T05:38:17.415Z,98.66
2017-02-23T05:39:17.944Z,98.66
2017-02-23T05:40:18.480Z,98.69
2017-02-23T05:41:19.009Z,98.66
2017-02-23T05:42:19.543Z,98.66
2017-02-23T05:43:20.078Z,98.66
2017-02-23T05:44:20.625Z,98.66
2017-02-23T05:45:21.139Z,98.66
2017-02-23T05:46:21.670Z,98.69
2017-02-23T05:47:22.201Z,98.75
2017-02-23T05:48:22.735Z,98.77
2017-02-23T05:49:23.264Z,98.77
2017-02-23T05:50:23.798Z,98.83
2017-02-23T05:51:24.332Z,98.83
2017-02-23T05:52:24.865Z,98.88
2017-02-23T05:53:25.394Z,98.91
2017-02-23T05:54:25.930Z,98.91
2017-02-23T05:55:26.457Z,98.94
2017-02-23T05:56:26.993Z,98.94
2017-02-23T05:57:27.523Z,98.96
2017-02-23T05:58:28.058Z,98.96
2017-02-23T05:59:28.592Z,98.96
2017-02-23T06:00:29.130Z,98.96
2017-02-23T06:01:29.659Z,98.96
2017-02-23T06:02:30.188Z,98.96
2017-02-23T06:03:30.720Z,98.99
2017-02-23T06:04:31.253Z,99.07
2017-02-23T06:05:31.783Z,99.07
2017-02-23T06:06:32.312Z,99.07
2017-02-23T06:07:32.993Z,99.07
2017-02-23T06:08:33.525Z,99.07
2017-02-23T06:09:33.915Z,99.13
2017-02-23T06:10:34.450Z,99.13
2017-02-23T06:11:34.984Z,99.13
2017-02-23T06:12:35.517Z,99.15
2017-02-23T06:13:36.085Z,99.21
2017-02-23T06:14:36.583Z,99.21
2017-02-23T06:15:37.119Z,99.26
2017-02-23T06:16:37.956Z,99.23
2017-02-23T06:17:38.215Z,99.23
2017-02-23T06:18:38.727Z,99.29
2017-02-23T06:19:39.263Z,99.32
2017-02-23T06:20:39.794Z,99.40
2017-02-23T06:21:40.330Z,99.43
2017-02-23T06:22:40.858Z,99.43
2017-02-23T06:23:41.402Z,99.45
2017-02-23T06:24:41.925Z,99.48
2017-02-23T06:25:42.453Z,99.56
2017-02-23T06:26:42.987Z,99.67
2017-02-23T06:27:43.514Z,99.64
2017-02-23T06:28:44.050Z,99.72
2017-02-23T06:29:44.613Z,99.72
2017-02-23T06:30:45.115Z,99.75
2017-02-23T06:31:45.681Z,99.81
2017-02-23T06:32:46.185Z,99.86
2017-02-23T06:33:46.718Z,99.94
2017-02-23T06:34:47.251Z,99.99
2017-02-23T06:35:47.784Z,99.99
2017-02-23T06:36:48.325Z,99.99
2017-02-23T06:37:48.859Z,99.99
2017-02-23T06:38:49.402Z,99.99
2017-02-23T06:39:49.939Z,99.99
2017-02-23T06:40:50.484Z,99.99
2017-02-23T06:41:51.030Z,99.99
2017-02-23T06:42:51.561Z,99.99
2017-02-23T06:43:52.097Z,99.99
2017-02-23T06:44:52.937Z,99.99
2017-02-23T06:45:53.318Z,99.99
2017-02-23T06:46:53.834Z,99.99
2017-02-23T06:47:54.211Z,99.99
2017-02-23T06:48:54.884Z,99.99
2017-02-23T06:49:55.279Z,99.99
2017-02-23T06:50:55.797Z,99.99
2017-02-23T06:51:56.347Z,99.99
2017-02-23T06:52:56.901Z,99.99
2017-02-23T06:53:57.403Z,99.99
2017-02-23T06:54:57.939Z,99.99
2017-02-23T06:55:58.470Z,99.99
2017-02-23T06:56:59.011Z,99.99
2017-02-23T06:57:59.552Z,99.99
2017-02-23T06:59:00.087Z,99.99
2017-02-23T07:00:00.628Z,99.99
2017-02-23T07:01:01.157Z,99.99
2017-02-23T07:02:01.694Z,99.96
2017-02-23T07:03:02.220Z,99.94
2017-02-23T07:04:02.750Z,99.89
2017-02-23T07:05:03.279Z,99.86
2017-02-23T07:06:03.814Z,99.83
2017-02-23T07:07:04.344Z,99.86
2017-02-23T07:08:04.876Z,99.92
2017-02-23T07:09:05.410Z,99.96
2017-02-23T07:10:05.941Z,99.99
2017-02-23T07:11:06.473Z,99.99
2017-02-23T07:12:07.006Z,99.99
2017-02-23T07:13:07.538Z,99.92
2017-02-23T07:14:08.067Z,99.78
2017-02-23T07:15:08.604Z,99.67
2017-02-23T07:16:09.136Z,99.59
2017-02-23T07:17:09.668Z,99.51
2017-02-23T07:18:10.206Z,99.45
2017-02-23T07:19:10.736Z,99.37
2017-02-23T07:20:11.265Z,98.91
2017-02-23T07:21:11.831Z,98.55
2017-02-23T07:22:12.334Z,98.45
2017-02-23T07:23:12.867Z,98.02
2017-02-23T07:24:13.396Z,97.69
2017-02-23T07:25:13.931Z,97.34
2017-02-23T07:26:14.461Z,97.21
2017-02-23T07:27:14.995Z,97.28
2017-02-23T07:28:15.524Z,97.12
2017-02-23T07:29:16.056Z,97.18
2017-02-23T07:30:16.584Z,97.12
2017-02-23T07:31:17.118Z,96.58
2017-02-23T07:32:17.653Z,96.58
2017-02-23T07:33:18.188Z,96.91
2017-02-23T07:34:18.723Z,96.96
2017-02-23T07:35:19.250Z,96.61
2017-02-23T07:36:19.783Z,96.64
2017-02-23T07:37:20.323Z,96.55
2017-02-23T07:38:20.850Z,96.66
2017-02-23T07:39:21.389Z,96.64
2017-02-23T07:40:21.932Z,96.61
2017-02-23T07:41:22.611Z,96.61
2017-02-23T07:42:22.998Z,96.64
2017-02-23T07:43:23.534Z,96.28
2017-02-23T07:44:24.069Z,96.28
2017-02-23T07:45:24.598Z,96.02
2017-02-23T07:46:25.128Z,95.94
2017-02-23T07:47:25.664Z,94.80
2017-02-23T07:48:26.192Z,94.91
2017-02-23T07:49:26.727Z,95.23
2017-02-23T07:50:27.266Z,95.18
2017-02-23T07:51:27.793Z,94.86
2017-02-23T07:52:28.324Z,94.96
2017-02-23T07:53:28.857Z,94.21
2017-02-23T07:54:29.386Z,93.54
2017-02-23T07:55:29.923Z,93.72
2017-02-23T07:56:30.453Z,94.21
2017-02-23T07:57:30.994Z,94.45
2017-02-23T07:58:31.512Z,94.42
2017-02-23T07:59:32.052Z,94.83
2017-02-23T08:00:32.577Z,94.88
2017-02-23T08:01:33.108Z,94.37
2017-02-23T08:02:33.644Z,94.07
2017-02-23T08:03:34.177Z,94.75
2017-02-23T08:04:34.713Z,94.31
2017-02-23T08:05:35.245Z,94.48
2017-02-23T08:06:35.775Z,93.54
2017-02-23T08:07:36.310Z,94.34
2017-02-23T08:08:36.839Z,94.42
2017-02-23T08:09:37.372Z,94.80
2017-02-23T08:10:37.900Z,94.53
2017-02-23T08:11:38.435Z,94.67
2017-02-23T08:12:39.118Z,94.50
2017-02-23T08:13:39.497Z,94.83
2017-02-23T08:14:40.031Z,94.83
2017-02-23T08:15:40.564Z,94.56
2017-02-23T08:16:41.103Z,94.83
2017-02-23T08:17:41.627Z,94.50
2017-02-23T08:18:42.169Z,93.91
2017-02-23T08:19:42.694Z,94.31
2017-02-23T08:20:43.226Z,94.37
2017-02-23T08:21:43.768Z,94.69
2017-02-23T08:22:44.300Z,94.21
2017-02-23T08:23:44.838Z,94.04
2017-02-23T08:24:45.371Z,94.56
2017-02-23T08:25:47.877Z,94.42
2017-02-23T08:26:46.432Z,93.91
2017-02-23T08:27:46.965Z,94.69
2017-02-23T08:28:47.500Z,94.34
2017-02-23T08:29:48.032Z,94.61
2017-02-23T08:30:48.566Z,94.69
2017-02-23T08:31:49.094Z,94.50
2017-02-23T08:32:49.632Z,93.89
2017-02-23T08:33:50.162Z,93.94
2017-02-23T08:34:50.694Z,93.78
2017-02-23T08:35:51.225Z,94.34
2017-02-23T08:36:51.758Z,94.07
2017-02-23T08:37:52.291Z,92.51
2017-02-23T08:38:52.825Z,92.70
2017-02-23T08:39:53.357Z,92.68
2017-02-23T08:40:53.899Z,93.54
2017-02-23T08:41:54.421Z,93.40
2017-02-23T08:42:54.951Z,93.96
2017-02-23T08:43:55.482Z,94.18
2017-02-23T08:44:56.015Z,93.54
2017-02-23T08:45:56.548Z,93.13
2017-02-23T08:46:57.079Z,92.91
2017-02-23T08:47:57.609Z,93.26
2017-02-23T08:48:58.145Z,92.05
2017-02-23T08:49:58.676Z,91.95
2017-02-23T08:50:59.202Z,92.84
2017-02-23T08:51:59.737Z,92.54
2017-02-23T08:53:00.266Z,91.65
2017-02-23T08:54:00.801Z,91.52
2017-02-23T08:55:01.331Z,92.05
2017-02-23T08:56:01.861Z,92.38
2017-02-23T08:57:02.390Z,91.79
2017-02-23T08:58:02.926Z,91.92
2017-02-23T08:59:03.605Z,92.05
2017-02-23T09:00:03.989Z,92.89
2017-02-23T09:01:04.536Z,92.84
2017-02-23T09:02:05.062Z,92.30
2017-02-23T09:03:05.598Z,91.63
2017-02-23T09:04:06.138Z,92.27
2017-02-23T09:05:06.818Z,92.19
2017-02-23T09:06:07.206Z,92.05
2017-02-23T09:07:07.740Z,91.73
2017-02-23T09:08:08.267Z,92.03
2017-02-23T09:09:08.798Z,92.65
2017-02-23T09:10:09.331Z,93.10
2017-02-23T09:11:09.863Z,92.99
2017-02-23T09:12:10.396Z,93.10
2017-02-23T09:13:10.928Z,93.89
2017-02-23T09:14:11.460Z,93.78
2017-02-23T09:15:11.992Z,92.54
2017-02-23T09:16:12.532Z,92.01
2017-02-23T09:17:13.059Z,93.51
2017-02-23T09:18:13.586Z,92.84
2017-02-23T09:19:14.117Z,92.65
2017-02-23T09:20:14.654Z,91.97
2017-02-23T09:21:15.336Z,93.40
2017-02-23T09:22:15.717Z,92.03
2017-02-23T09:23:16.246Z,91.90
2017-02-23T09:24:16.811Z,92.46
2017-02-23T09:25:17.316Z,92.30
2017-02-23T09:26:17.851Z,92.03
2017-02-23T09:27:18.384Z,93.05
2017-02-23T09:28:18.911Z,92.24
2017-02-23T09:29:19.444Z,91.90
2017-02-23T09:30:19.980Z,92.65
2017-02-23T09:31:20.510Z,91.47
2017-02-23T09:32:21.040Z,91.92
2017-02-23T09:33:21.573Z,91.28
2017-02-23T09:34:22.107Z,91.84
2017-02-23T09:35:22.641Z,92.30
2017-02-23T09:36:23.209Z,91.52
2017-02-23T09:37:23.696Z,90.39
2017-02-23T09:38:24.235Z,91.14
2017-02-23T09:39:24.761Z,91.07
2017-02-23T09:40:25.295Z,91.90
2017-02-23T09:41:25.829Z,91.86
2017-02-23T09:42:26.509Z,91.90
2017-02-23T09:43:26.901Z,92.14
2017-02-23T09:44:27.437Z,92.24
2017-02-23T09:45:27.971Z,92.22
2017-02-23T09:46:28.504Z,91.55
2017-02-23T09:47:29.034Z,91.90
2017-02-23T09:48:29.574Z,92.14
2017-02-23T09:49:30.102Z,91.41
2017-02-23T09:50:30.636Z,91.36
2017-02-23T09:51:31.159Z,92.08
2017-02-23T09:52:31.695Z,92.11
2017-02-23T09:53:32.224Z,91.28
2017-02-23T09:54:32.753Z,91.57
2017-02-23T09:55:33.288Z,91.86
2017-02-23T09:56:33.824Z,92.05
2017-02-23T09:57:34.372Z,92.24
2017-02-23T09:58:35.030Z,91.71
2017-02-23T09:59:35.424Z,92.57
2017-02-23T10:00:35.963Z,91.57
2017-02-23T10:01:36.484Z,92.08
2017-02-23T10:02:37.016Z,92.43
2017-02-23T10:03:37.542Z,92.49
2017-02-23T10:04:38.079Z,92.43
2017-02-23T10:05:38.610Z,92.54
2017-02-23T10:06:39.145Z,92.08
2017-02-23T10:07:39.673Z,92.40
2017-02-23T10:08:40.207Z,91.03
2017-02-23T10:09:40.746Z,90.74
2017-02-23T10:10:41.272Z,92.59
2017-02-23T10:11:41.802Z,92.08
2017-02-23T10:12:42.340Z,92.70
2017-02-23T10:13:42.877Z,91.97
2017-02-23T10:14:43.402Z,91.90
2017-02-23T10:15:43.935Z,92.51
2017-02-23T10:16:44.468Z,91.30
2017-02-23T10:17:44.999Z,91.11
2017-02-23T10:18:45.534Z,91.33
2017-02-23T10:19:46.068Z,92.84
2017-02-23T10:20:46.593Z,92.08
2017-02-23T10:21:47.278Z,91.57
2017-02-23T10:22:47.809Z,91.82
2017-02-23T10:23:48.199Z,90.93
2017-02-23T10:24:48.734Z,90.63
2017-02-23T10:25:49.271Z,90.93
2017-02-23T10:26:49.808Z,91.47
2017-02-23T10:27:50.345Z,89.59
2017-02-23T10:28:51.029Z,91.25
2017-02-23T10:29:51.406Z,89.37
2017-02-23T10:30:51.937Z,89.80
2017-02-23T10:31:52.464Z,91.41
2017-02-23T10:32:53.145Z,90.15
2017-02-23T10:33:53.559Z,89.99
2017-02-23T10:34:54.062Z,90.71
2017-02-23T10:35:54.590Z,89.94
2017-02-23T10:36:55.119Z,88.79
2017-02-23T10:37:55.649Z,88.79
2017-02-23T10:38:56.185Z,89.48
2017-02-23T10:39:56.714Z,89.56
2017-02-23T10:40:57.248Z,88.31
2017-02-23T10:41:57.777Z,88.68
2017-02-23T10:42:58.350Z,88.95
2017-02-23T10:43:58.847Z,88.76
2017-02-23T10:44:59.378Z,88.65
2017-02-23T10:45:59.906Z,88.09
2017-02-23T10:47:00.479Z,87.90
2017-02-23T10:48:00.976Z,89.03
2017-02-23T10:49:01.511Z,87.37
2017-02-23T10:50:02.041Z,87.74
2017-02-23T10:51:02.570Z,87.43
2017-02-23T10:52:03.098Z,86.79
2017-02-23T10:53:03.633Z,86.60
2017-02-23T10:54:04.163Z,86.46
2017-02-23T10:55:04.701Z,86.30
2017-02-23T10:56:05.227Z,87.32
2017-02-23T10:57:05.767Z,87.48
2017-02-23T10:58:06.297Z,87.26
2017-02-23T10:59:06.827Z,87.32
2017-02-23T11:00:07.359Z,86.65
2017-02-23T11:01:07.890Z,85.11
2017-02-23T11:02:08.576Z,86.63
2017-02-23T11:03:08.956Z,87.02
2017-02-23T11:04:09.639Z,87.10
2017-02-23T11:05:10.025Z,85.85
2017-02-23T11:06:10.717Z,85.21
2017-02-23T11:07:11.104Z,85.77
2017-02-23T11:08:11.640Z,86.79
2017-02-23T11:09:12.177Z,86.25
2017-02-23T11:10:12.711Z,85.27
2017-02-23T11:11:13.244Z,84.31
2017-02-23T11:12:13.787Z,85.58
2017-02-23T11:13:14.312Z,85.85
2017-02-23T11:14:14.851Z,86.07
2017-02-23T11:15:15.375Z,85.32
2017-02-23T11:16:15.903Z,84.09
2017-02-23T11:17:16.434Z,85.00
2017-02-23T11:18:16.966Z,85.32
2017-02-23T11:19:17.501Z,83.20
2017-02-23T11:20:18.049Z,84.71
2017-02-23T11:21:18.567Z,85.30
2017-02-23T11:22:19.102Z,85.64
2017-02-23T11:23:19.627Z,85.16
2017-02-23T11:24:20.156Z,85.19
2017-02-23T11:25:20.688Z,84.76
2017-02-23T11:26:21.220Z,85.56
2017-02-23T11:27:21.756Z,84.44
2017-02-23T11:28:22.283Z,84.74
2017-02-23T11:29:22.824Z,85.96
2017-02-23T11:30:23.355Z,84.71
2017-02-23T11:31:23.891Z,86.46
2017-02-23T11:32:24.567Z,86.28
2017-02-23T11:33:24.954Z,86.22
2017-02-23T11:34:25.483Z,83.67
2017-02-23T11:35:26.013Z,85.03
2017-02-23T11:36:26.545Z,85.40
2017-02-23T11:37:27.078Z,85.58
2017-02-23T11:38:27.609Z,84.07
2017-02-23T11:39:28.142Z,83.89
2017-02-23T11:40:28.675Z,84.31
2017-02-23T11:41:29.206Z,85.08
2017-02-23T11:42:29.735Z,85.08
2017-02-23T11:43:30.271Z,86.76
2017-02-23T11:44:30.949Z,85.24
2017-02-23T11:45:31.333Z,85.46
2017-02-23T11:46:32.016Z,85.96
2017-02-23T11:47:32.404Z,86.91
2017-02-23T11:48:32.941Z,86.25
2017-02-23T11:49:33.476Z,86.07
2017-02-23T11:50:34.018Z,85.11
2017-02-23T11:51:34.546Z,85.99
2017-02-23T11:52:35.080Z,86.94
2017-02-23T11:53:35.617Z,87.02
2017-02-23T11:54:36.146Z,85.30
2017-02-23T11:55:36.679Z,86.73
2017-02-23T11:56:37.217Z,86.28
2017-02-23T11:57:37.743Z,87.29
2017-02-23T11:58:38.274Z,86.20
2017-02-23T11:59:38.806Z,86.28
2017-02-23T12:00:39.333Z,85.85
2017-02-23T12:01:39.870Z,85.91
2017-02-23T12:02:40.549Z,84.95
2017-02-23T12:03:40.932Z,85.46
2017-02-23T12:04:41.463Z,85.80
2017-02-23T12:05:41.996Z,85.50
2017-02-23T12:06:42.827Z,85.58
2017-02-23T12:07:43.057Z,86.44
2017-02-23T12:08:43.589Z,86.20
2017-02-23T12:09:44.123Z,86.01
2017-02-23T12:10:44.651Z,84.09
2017-02-23T12:11:45.186Z,84.55
2017-02-23T12:12:45.716Z,86.22
2017-02-23T12:13:46.251Z,85.75
2017-02-23T12:14:46.779Z,84.74
2017-02-23T12:15:47.313Z,85.75
2017-02-23T12:16:47.846Z,86.57
2017-02-23T12:17:48.379Z,84.15
2017-02-23T12:18:48.905Z,87.00
2017-02-23T12:19:49.441Z,86.25
2017-02-23T12:20:49.977Z,87.21
2017-02-23T12:21:50.509Z,85.27
2017-02-23T12:22:51.189Z,84.52
2017-02-23T12:23:51.572Z,85.91
2017-02-23T12:24:52.102Z,85.40
2017-02-23T12:25:52.636Z,86.52
2017-02-23T12:26:53.175Z,85.48
2017-02-23T12:27:53.705Z,85.08
2017-02-23T12:28:54.243Z,85.48
2017-02-23T12:29:54.777Z,86.01
2017-02-23T12:30:55.465Z,85.77
2017-02-23T12:31:55.845Z,85.83
2017-02-23T12:32:56.379Z,86.22
2017-02-23T12:33:56.910Z,87.05
2017-02-23T12:34:57.457Z,87.34
2017-02-23T12:35:57.990Z,87.45
2017-02-23T12:36:58.514Z,87.32
2017-02-23T12:37:59.048Z,87.96
2017-02-23T12:38:59.579Z,87.21
2017-02-23T12:40:00.120Z,86.33
2017-02-23T12:41:00.644Z,86.57
2017-02-23T12:42:01.179Z,86.71
2017-02-23T12:43:01.712Z,86.60
2017-02-23T12:44:02.246Z,86.84
2017-02-23T12:45:02.777Z,86.07
2017-02-23T12:46:03.311Z,85.72
2017-02-23T12:47:03.840Z,87.88
2017-02-23T12:48:04.381Z,87.37
2017-02-23T12:49:04.907Z,87.21
2017-02-23T12:50:05.445Z,87.10
2017-02-23T12:51:06.143Z,88.07
2017-02-23T12:52:06.512Z,86.04
2017-02-23T12:53:07.041Z,87.32
2017-02-23T12:54:07.585Z,87.53
2017-02-23T12:55:08.103Z,87.69
2017-02-23T12:56:08.637Z,87.43
2017-02-23T12:57:09.168Z,86.84
2017-02-23T12:58:09.699Z,85.85
2017-02-23T12:59:10.242Z,87.05